Accueil
METAR-TAF:

METAR-TAF

Aéroports :

Tarvisio, Italie

latitude: 46-30N, longitude: 013-35E, altitude: 777 m

Observation

Le bulletin a été fait il y a 5 heures et 51 minutes, à 17:55 UTC
Vent 5 kt de ouest/nord-ouest avec des rafales jusqu'à 17 kt
Température 2°C
Humidité 40%
Pression 1001 hPa
Visibilité 10 km ou plus
Nuages épars à une hauteur de 3000 ft
Nuages fragmentés à une hauteur de 5000 ft

METAR: LIVO 271755Z 30005G17KT 9999 SCT030 BKN050 02/M10 Q1001 RMK BKN VIS MIN 9999

Heure: 00:46 (23:46 UTC)


TAF: absent

Observations et prévisions météorologiques de plus de 4000 aéroports (messages METAR et TAF).

Les stations disponibles sont représentées par des disques jaunes et rouges sur la carte.

Passer la souris dessus pour voir le nom de la station.

Cliquer dessus pour voir les observations et prévisions météorologiques.

Pour changer de carte: cliquez sur les boutons verts avec une croix noire pour zoomer, sur le bouton vert avec un tiret pour effectuer un zoom arrière, ou sur les flèches vertes pour les cartes adjacentes.


METAR-TAF: